Salinas, CA (93907)

3:53 PM PDT on July 24, 2016 (GMT -0700)
| | Change Station

Elev -9999 ft 0.00 °N, 0.00 °E | Updated

Clear
Clear
62 °F
Feels Like 62 °F
N
13
Wind Variable Wind from WSW
Gusts mph

Today
High -- | Low -- °F
--% Chance of Precip.
Yesterday
High -- | Low -- °F
Precip. -- in
Pressure 29.95 in
Visibility 9.0 miles
Clouds Clear
Dew Point 55 °F
Humidity 78%
Rainfall --
Snow Depth Not available.
6:06 AM 8:19 PM
Waning Gibbous, 72% visible
METAR KSNS 242153Z AUTO 27014KT 9SM CLR 19/11 A2992 RMK AO2 SLP140 T01890111 TSNO
Pressure 29.95 in
Visibility 9.0 miles
Clouds Clear
Dew Point 55 °F
Humidity 78%
Rainfall --
Snow Depth Not available.
6:06 AM 8:19 PM
Waning Gibbous, 72% visible
METAR KSNS 242153Z AUTO 27014KT 9SM CLR 19/11 A2992 RMK AO2 SLP140 T01890111 TSNO

10-Day Weather Forecast

Almanac

Astronomy

Jul. 24, 2016 Rise Set
Actual Time
Civil Twilight
Nautical Twilight
Astronomical Twilight
Moon
Length of Visible Light
Length of Day
Tomorrow will be .
, % of the Moon is Illuminated

Today's Extremes

State Highs State Lows

Community

WunderPhotos

Upload Photos

1,927,207 photos uploaded!

WunderBlog® & News

Nearby

Air Quality

  Air Quality AQ Index Pollutant
Not available.

Snow Depth

Station Depth Elevation

Earthquake Activity

City Distance Mag. Time & Date
Minimum magnitude displayed is 2.5.

Coastal Water Temperatures

Place Temperature

Stations

Nearby Weather Stations

Station Location Temp. Windchill Dew Point Humidity Wind Precip. Elev Updated Type
                   

Watches & Warnings

There are currently no watches in effect.